Date,TemperatureHighF,TemperatureAvgF,TemperatureLowF,DewpointHighF,DewpointAvgF,DewpointLowF,HumidityHigh,HumidityAvg,HumidityLow,PressureMaxIn,PressureMinIn,WindSpeedMaxMPH,WindSpeedAvgMPH,GustSpeedMaxMPH,PrecipitationSumIn
2013-1-1,35.2,30.2,18.3,26.4,18.5,6.7,75,62,50,29.92,29.71,7,2,21,0.00
2013-1-2,27.9,19.1,11.3,15.9,8.8,1.0,73,64,54,30.10,29.90,6,2,20,0.00
2013-1-3,23.0,13.3,4.1,10.5,0.3,-6.0,76,57,32,30.14,29.98,4,1,12,0.00
2013-1-4,36.8,28.1,14.3,25.1,20.1,9.2,85,72,58,29.98,29.81,5,1,16,0.00
2013-1-5,40.1,32.2,22.3,25.0,21.6,17.2,82,65,46,30.25,29.84,5,1,16,0.04
2013-1-6,41.0,31.3,23.6,29.1,25.4,18.5,91,79,61,30.21,29.93,4,0,11,0.05
2013-1-7,37.9,31.8,22.9,29.0,23.6,16.4,86,72,53,30.38,29.96,3,1,9,0.02
2013-1-8,44.2,34.4,23.6,29.9,25.9,17.4,84,71,55,30.35,30.26,5,1,13,0.10
2013-1-9,42.9,35.4,24.3,35.4,28.8,22.1,93,77,57,30.38,30.00,3,1,13,0.08
2013-1-10,44.7,39.7,30.5,29.4,25.3,23.6,76,57,45,30.52,30.04,7,2,22,0.01
2013-1-11,38.4,32.6,26.1,34.6,27.5,21.8,96,82,67,30.52,30.20,1,0,3,0.09
2013-1-12,40.9,37.6,35.1,40.1,36.8,34.1,98,97,96,30.21,30.11,1,0,4,0.03
2013-1-13,49.9,44.6,39.2,48.4,43.8,38.7,100,97,93,30.14,29.97,2,0,8,0.00
2013-1-14,58.1,49.3,39.5,51.4,42.5,28.8,97,79,46,30.23,29.82,5,2,16,0.00
2013-1-15,39.5,36.0,31.6,29.2,26.0,24.0,76,67,57,30.31,30.20,2,0,5,0.00
2013-1-16,32.4,31.2,28.8,31.3,28.6,24.2,96,91,73,30.24,29.81,0,0,2,0.03
2013-1-17,40.1,33.2,28.1,32.6,26.8,14.0,96,78,56,30.08,29.81,5,1,15,0.17
2013-1-18,28.1,21.0,16.4,15.8,4.5,-2.2,62,49,34,30.44,30.03,5,2,16,0.00
2013-1-19,45.8,35.6,20.2,32.3,23.3,7.7,76,61,45,30.37,29.86,5,3,13,0.07
2013-1-20,50.9,39.6,27.5,32.8,25.9,9.1,76,59,33,29.91,29.52,8,4,23,0.00
2013-1-21,27.4,23.6,19.9,13.1,8.3,5.5,58,52,47,30.08,29.90,5,1,17,0.00
2013-1-22,24.2,21.5,11.4,8.7,6.6,-1.7,61,52,47,30.07,29.98,4,1,13,0.00
2013-1-23,14.5,9.7,5.6,1.5,-5.5,-8.8,69,50,36,30.14,30.06,6,2,19,0.00
2013-1-24,18.4,9.5,1.3,-4.0,-7.4,-10.3,62,46,32,30.23,30.07,6,3,22,0.00
2013-1-25,22.5,14.8,6.8,12.2,-3.9,-9.7,84,44,28,30.31,30.05,4,2,14,0.00
2013-1-26,23.1,15.5,8.5,12.7,3.8,-4.9,89,62,37,30.24,30.00,4,2,13,0.00
2013-1-27,29.0,19.4,12.2,5.6,2.9,0.5,67,50,32,30.46,30.23,4,2,17,0.00
2013-1-28,29.9,23.5,18.0,24.4,13.8,3.1,94,68,41,30.45,30.01,2,0,6,0.00
2013-1-29,32.5,28.6,23.7,31.3,27.0,21.9,100,94,91,30.19,30.01,1,0,3,0.11
2013-1-30,58.7,46.6,32.2,56.1,45.3,31.2,98,96,91,30.14,29.42,5,2,16,0.15
2013-1-31,60.0,46.4,29.5,58.3,37.0,15.7,96,71,43,29.57,28.95,8,5,27,0.41
2013-2-1,31.2,27.2,20.7,17.3,9.6,4.8,60,47,37,30.07,29.57,6,3,18,0.00
2013-2-2,29.2,23.0,15.7,12.8,8.1,3.4,62,53,42,30.24,30.03,6,1,20,0.00
2013-2-3,26.2,23.3,18.5,21.8,19.5,12.8,92,85,61,30.05,29.72,2,0,10,0.00
2013-2-4,28.5,22.8,18.7,20.5,12.0,7.5,92,64,43,29.94,29.71,7,2,26,0.00
2013-2-5,28.5,23.6,19.2,21.2,14.6,9.4,90,69,54,30.01,29.92,2,0,6,0.00
2013-2-6,36.7,28.5,22.5,25.6,18.6,5.0,94,69,41,30.28,29.91,6,2,18,0.02
2013-2-7,29.6,23.4,15.9,12.5,5.8,3.0,67,47,34,30.51,30.29,3,0,10,0.00
2013-2-8,26.3,22.9,17.0,24.3,18.7,9.2,94,84,57,30.47,29.61,6,2,16,0.00
2013-2-9,22.1,18.3,13.7,19.5,15.6,8.1,93,89,78,30.20,29.58,7,4,20,0.00
2013-2-10,37.6,22.9,10.9,19.7,10.6,4.2,79,61,37,30.39,30.20,4,1,11,0.15
2013-2-11,39.9,29.2,18.6,39.4,24.9,7.9,98,84,57,30.34,29.60,2,0,9,0.14
2013-2-12,42.6,38.0,33.1,39.6,29.5,25.1,98,72,56,29.87,29.60,7,3,21,0.17
2013-2-13,40.9,33.8,25.7,26.3,24.2,21.3,85,68,53,29.85,29.67,3,1,10,0.00
2013-2-14,43.7,34.6,27.5,25.1,22.8,20.6,77,63,43,29.98,29.70,3,1,10,0.00
2013-2-15,50.2,37.9,27.9,35.0,30.5,23.0,95,76,54,29.98,29.88,4,1,13,0.00
2013-2-16,36.9,33.4,28.6,31.1,27.4,17.9,94,79,58,29.94,29.70,4,1,11,0.03
2013-2-17,28.5,20.7,16.1,21.0,10.4,1.1,90,65,45,29.70,29.39,8,4,24,0.00
2013-2-18,30.9,21.4,13.0,5.4,2.0,-0.8,58,44,28,30.15,29.69,7,4,21,0.00
2013-2-19,46.2,30.6,21.1,32.1,16.2,3.1,61,55,44,30.17,29.86,3,1,8,0.00
2013-2-21,25.2,24.5,24.0,16.6,16.1,15.7,72,70,67,30.19,30.10,2,1,9,0.00
2013-2-22,39.9,30.5,22.3,24.9,20.9,16.4,82,68,45,30.38,30.20,3,1,12,0.00
2013-2-23,37.4,32.5,27.3,32.0,28.1,22.8,96,84,74,30.32,29.90,2,0,7,0.00
2013-2-24,33.5,32.3,30.6,32.5,31.4,29.5,97,96,95,29.90,29.69,3,1,8,0.26
2013-2-25,38.5,33.0,27.2,34.0,31.0,26.2,97,93,80,30.23,29.89,1,0,3,0.37
2013-2-26,33.3,29.8,28.8,31.2,28.4,27.4,96,94,82,30.27,30.14,1,0,2,0.11
2013-2-27,39.9,36.6,32.8,39.1,35.3,29.8,97,95,88,30.15,29.74,5,2,17,0.74
2013-3-2,40.2,37.4,33.5,29.9,28.3,26.0,80,70,63,29.65,29.61,3,1,10,0.00
2013-3-3,33.5,31.8,30.8,26.6,25.1,24.6,79,76,75,29.64,29.61,2,2,9,0.00
2013-3-4,35.3,32.1,31.0,26.3,24.9,24.0,75,74,68,29.74,29.62,5,2,13,0.00
2013-3-5,44.9,35.4,29.7,31.2,27.2,22.7,90,73,55,30.06,29.74,3,1,10,0.00
2013-3-6,39.0,34.9,32.5,34.8,32.5,30.7,96,91,75,30.09,30.03,5,2,14,0.10
2013-3-7,33.1,31.2,29.5,30.9,29.1,27.3,95,92,86,30.06,29.99,5,3,13,0.05
2013-3-8,38.2,31.9,28.9,33.0,29.0,24.2,97,90,62,30.15,29.93,4,2,11,0.08
2013-3-9,50.1,36.6,26.7,31.8,25.3,21.3,94,66,36,30.34,30.14,3,1,8,0.39
2013-3-10,46.4,34.7,24.2,33.1,29.2,22.9,96,82,59,30.40,30.28,3,1,7,0.00
2013-3-11,52.6,40.9,33.7,39.8,35.0,30.6,96,81,54,30.31,30.13,3,1,7,0.00
2013-3-12,53.6,47.8,40.2,51.2,46.3,38.8,98,94,85,30.14,29.71,5,2,12,0.34
2013-3-13,50.0,42.2,34.8,49.2,30.3,20.4,97,65,35,29.77,29.69,5,2,16,0.00
2013-3-14,35.3,32.3,22.5,24.8,20.6,7.9,70,62,48,29.83,29.73,5,2,16,0.00
2013-3-15,40.4,32.1,18.9,27.7,16.8,7.7,79,55,31,29.87,29.63,5,2,19,0.00
2013-3-16,39.1,32.5,26.8,27.6,16.3,10.2,79,53,33,29.87,29.67,3,1,12,0.00
2013-3-17,37.4,29.9,24.0,17.6,11.6,4.7,72,48,28,30.30,29.86,5,2,16,0.00
2013-3-18,38.4,27.7,16.4,26.1,8.8,1.5,91,47,24,30.45,30.22,2,0,7,0.00
2013-3-19,33.9,31.0,27.3,32.8,29.8,25.8,96,95,91,30.22,29.62,3,1,10,0.18
2013-3-20,37.9,29.9,22.8,25.8,21.5,19.0,94,72,48,29.80,29.69,6,2,18,0.21
2013-3-21,36.4,28.6,20.7,27.7,21.7,17.1,93,76,48,29.81,29.60,2,0,8,0.16
2013-3-22,40.9,32.0,25.9,25.4,19.7,16.3,89,61,40,29.74,29.60,6,2,18,0.11
2013-3-23,42.9,34.5,27.4,23.6,20.8,18.8,77,58,40,29.79,29.64,7,3,24,0.01
2013-3-24,46.4,37.2,31.1,27.2,23.7,20.3,77,59,43,29.81,29.72,4,2,14,0.00
2013-3-25,41.9,35.4,29.6,33.1,28.8,23.6,85,77,68,29.76,29.50,3,1,8,0.00
2013-3-26,49.1,39.6,33.9,29.8,26.1,21.0,77,60,36,29.77,29.53,4,1,10,0.00
2013-3-27,52.6,42.0,32.4,31.1,25.1,20.8,68,52,35,29.86,29.74,4,1,14,0.00
2013-3-28,48.5,41.6,35.1,34.7,32.9,30.0,93,72,50,30.01,29.86,2,1,9,0.01
2013-3-29,56.1,45.5,36.8,35.4,32.2,28.3,81,61,36,30.04,29.96,4,1,14,0.00
2013-3-30,56.7,45.8,36.1,33.2,25.1,17.7,77,48,23,30.08,29.99,5,1,13,0.00
2013-3-31,58.2,44.9,29.3,40.6,27.8,20.5,90,55,26,30.10,29.72,4,1,10,0.05
2013-4-1,61.1,45.2,33.7,43.9,35.8,12.1,96,73,37,29.78,29.49,6,2,20,0.12
2013-4-2,39.4,33.2,27.5,20.1,14.8,10.9,63,47,34,29.94,29.78,8,4,27,0.00
2013-4-3,44.6,35.5,28.9,21.2,14.9,10.0,69,44,27,30.16,29.92,7,4,22,0.00
2013-4-4,55.4,41.1,29.2,26.9,18.1,12.0,63,42,21,30.29,30.03,4,2,12,0.00
2013-4-5,61.5,45.5,36.1,30.7,27.1,19.0,76,52,21,30.04,29.62,5,2,16,0.00
2013-4-6,46.7,37.2,30.7,26.2,12.2,4.2,60,38,19,30.32,29.87,5,2,17,0.00
2013-4-7,55.4,41.9,26.1,40.4,26.9,9.6,82,57,29,30.33,29.99,6,2,14,0.00
2013-4-8,68.0,52.7,41.6,42.7,39.9,34.3,95,66,31,30.07,29.94,4,1,12,0.00
2013-4-9,71.0,56.2,45.0,54.1,44.7,40.3,96,68,42,30.07,29.85,6,1,20,0.08
2013-4-10,65.5,52.4,45.3,50.6,46.7,42.7,96,82,56,30.00,29.83,2,0,7,0.27
2013-4-11,55.2,46.8,40.4,46.7,39.1,26.7,97,77,44,30.13,29.81,3,1,8,0.04
2013-4-12,40.6,37.2,35.6,36.8,35.3,32.9,97,93,77,30.15,29.78,4,1,13,0.48
2013-4-13,53.0,43.1,34.5,39.4,36.0,33.3,97,78,53,29.93,29.75,4,1,11,0.05
2013-4-14,52.2,44.6,38.2,39.8,32.7,26.3,91,65,41,30.21,29.90,5,1,17,0.01
2013-4-15,59.9,46.3,32.1,39.6,32.9,27.7,92,62,37,30.38,30.21,2,1,7,0.00
2013-4-16,67.3,51.9,37.1,51.0,42.6,34.4,92,73,45,30.38,30.05,5,2,15,0.00
2013-4-17,68.5,57.7,47.0,52.9,38.4,28.9,90,53,26,30.32,30.05,4,2,13,0.00
2013-4-18,65.3,51.4,38.2,45.0,33.8,27.9,79,53,32,30.41,30.12,4,1,10,0.00
2013-4-19,73.8,62.1,51.3,62.6,57.1,45.0,97,84,64,30.12,29.62,6,2,17,0.00
2013-4-20,65.3,52.5,41.8,62.2,41.0,23.0,96,68,38,30.21,29.58,6,2,21,0.52
2013-4-21,54.7,42.5,32.7,29.0,23.4,19.2,76,48,26,30.67,30.21,4,1,13,0.00
2013-4-22,52.9,41.9,30.8,34.8,30.4,24.9,92,67,35,30.74,30.58,6,1,15,0.00
2013-4-23,40.7,39.0,36.7,39.6,36.5,31.0,96,91,75,30.58,30.12,3,1,8,0.02
2013-4-24,76.2,55.5,39.9,53.1,44.3,38.9,100,72,27,30.11,29.78,4,2,11,0.01
2013-4-25,64.5,54.8,46.7,52.0,36.5,25.3,93,55,25,30.25,29.81,5,2,16,0.02
2013-4-26,63.7,50.2,38.3,39.6,34.2,27.2,84,56,39,30.41,30.25,3,1,10,0.00
2013-4-27,67.3,51.3,35.8,40.5,37.0,33.6,96,63,30,30.41,30.26,2,0,8,0.00
2013-4-28,73.1,54.8,37.7,43.1,36.4,28.5,94,55,26,30.32,30.18,3,1,9,0.00
2013-4-29,71.1,57.6,46.0,49.2,38.5,26.3,87,53,28,30.25,30.17,3,1,9,0.00
2013-4-30,73.7,58.3,45.3,37.2,29.1,17.8,68,36,17,30.35,30.23,2,0,9,0.00
2013-5-1,73.2,56.3,38.9,40.2,34.6,28.3,82,48,25,30.45,30.34,2,0,10,0.00
2013-5-2,82.3,58.4,44.8,47.6,41.9,36.6,93,59,24,30.47,30.32,3,0,14,0.00
2013-5-3,65.3,51.7,41.3,46.2,41.3,37.5,92,69,47,30.50,30.37,2,0,8,0.00
2013-5-4,66.0,51.1,39.1,46.6,39.8,32.8,96,69,39,30.36,30.28,2,0,9,0.00
2013-5-5,65.0,49.3,36.5,43.6,39.2,34.8,95,72,42,30.32,30.23,2,0,8,0.00
2013-5-6,77.0,54.8,36.1,52.2,44.0,34.5,96,71,32,30.27,30.12,2,0,5,0.00
2013-5-7,82.0,63.8,45.5,58.8,52.4,43.4,95,70,41,30.16,30.06,1,0,6,0.00
2013-5-8,70.6,62.3,53.6,65.4,58.7,51.8,97,88,68,30.17,30.02,3,0,9,0.20
2013-5-9,66.6,60.2,57.1,62.2,58.8,56.2,98,95,81,30.02,29.87,1,0,5,0.42
2013-5-10,80.2,65.6,51.1,61.2,55.7,50.4,99,74,38,29.94,29.87,1,0,8,0.00
2013-5-11,69.2,63.1,57.8,62.6,59.0,54.6,96,87,73,29.90,29.67,2,0,8,0.06
2013-5-12,71.2,60.1,49.4,60.0,51.0,31.6,97,75,43,29.80,29.55,4,1,15,0.15
2013-5-13,58.2,49.1,42.5,34.7,31.4,27.9,69,51,35,30.01,29.80,5,1,16,0.00
2013-5-14,59.6,48.9,39.5,37.0,32.7,29.0,76,55,34,30.04,29.96,3,0,15,0.00
2013-5-15,65.5,51.7,37.2,52.1,41.0,31.9,93,70,37,30.04,29.66,2,0,9,0.05
2013-5-16,81.0,68.0,52.8,52.2,42.9,33.7,94,45,23,29.78,29.62,5,2,20,0.00
2013-5-17,69.5,58.9,50.1,46.4,42.5,37.7,78,56,34,30.20,29.78,2,0,15,0.00
2013-5-18,74.2,60.0,43.4,48.8,43.8,35.5,93,60,30,30.29,30.20,1,0,8,0.00
2013-5-19,71.8,57.7,47.8,55.7,50.8,45.4,96,80,49,30.32,30.20,1,0,11,0.19
2013-5-20,82.4,67.5,55.2,66.4,60.9,54.1,98,81,56,30.19,29.90,2,0,10,0.01
2013-5-21,86.0,64.6,50.5,70.6,59.8,49.4,97,86,56,29.99,29.82,1,0,7,0.35
2013-5-22,73.6,58.0,49.6,66.8,55.4,48.7,100,91,74,30.05,29.86,2,0,12,0.21
2013-5-23,72.8,63.2,54.3,69.4,61.2,52.9,99,93,85,29.91,29.78,1,0,8,0.17
2013-5-24,70.4,61.8,47.6,66.2,60.0,46.4,98,94,80,29.81,29.63,1,0,9,0.43
2013-5-25,49.6,45.8,40.0,48.6,45.0,38.8,100,97,95,29.80,29.71,2,1,11,0.43
2013-5-26,56.9,47.5,38.5,42.5,39.6,36.6,95,75,52,30.10,29.71,5,2,20,0.01
2013-5-27,72.8,57.2,41.9,46.5,40.8,33.8,91,60,27,30.15,30.06,3,1,12,0.00
2013-5-28,77.2,60.3,44.1,53.4,46.8,41.4,92,65,31,30.22,30.13,1,0,6,0.00
2013-5-29,70.3,62.3,57.5,66.5,60.3,53.7,97,93,82,30.17,29.97,0,0,5,0.83
2013-5-30,88.5,74.7,61.7,70.9,66.3,60.8,98,78,51,30.07,29.99,2,0,14,0.01
2013-5-31,94.3,81.4,67.9,71.8,66.4,63.0,87,63,38,30.07,29.91,2,0,10,0.00
2013-6-1,92.4,80.0,67.8,71.6,66.8,62.1,83,66,44,29.95,29.83,2,0,12,0.00
2013-6-2,88.4,76.8,68.2,71.2,67.4,64.2,92,75,48,29.86,29.70,2,0,9,0.00
2013-6-3,79.3,68.7,60.4,68.6,62.6,43.8,97,82,53,29.83,29.74,1,0,9,0.43
2013-6-4,72.1,61.3,50.6,50.3,45.7,39.9,76,57,41,30.08,29.81,2,0,14,0.00
2013-6-5,76.2,62.9,51.5,54.6,48.3,45.1,85,62,35,30.17,30.07,2,0,7,0.00
2013-6-6,66.2,66.2,66.2,52.8,52.8,49.1,62,62,62,30.15,30.10,0,0,0,0.00
2013-6-7,57.6,54.8,52.6,56.7,54.1,52.1,98,97,97,30.01,29.79,0,0,2,1.84
2013-6-8,78.4,63.1,52.1,66.0,58.0,51.6,99,85,61,29.91,29.61,3,1,12,1.05
2013-6-9,76.1,66.2,60.1,58.7,57.0,55.5,89,73,51,30.15,29.99,1,0,4,0.00
2013-6-10,68.4,63.0,56.7,62.9,58.5,54.1,97,86,72,30.18,29.99,0,0,4,0.44
2013-6-11,61.2,57.7,55.6,58.9,56.6,54.8,98,96,91,29.99,29.56,0,0,5,1.32
2013-6-12,70.2,61.9,56.2,57.0,55.4,52.6,98,81,59,29.80,29.55,4,1,13,0.02
2013-6-13,63.9,56.5,51.5,59.9,53.9,49.8,97,91,81,29.80,29.66,0,0,4,0.89
2013-6-14,75.7,59.9,51.2,60.6,54.3,50.3,98,84,49,29.76,29.62,1,0,7,0.91
2013-6-15,80.2,67.3,57.9,55.0,50.0,43.4,79,57,30,29.92,29.76,2,0,12,0.00
2013-6-16,73.0,66.3,53.8,63.4,55.1,45.7,80,68,49,29.92,29.69,2,0,12,0.00
2013-6-17,84.7,69.2,59.3,64.6,60.6,56.4,97,77,43,29.88,29.75,5,0,25,0.42
2013-6-18,73.9,62.1,57.9,66.9,60.3,56.9,98,94,75,29.93,29.86,2,0,6,0.32
2013-6-19,76.1,63.5,55.8,58.0,54.6,50.0,98,76,44,30.13,29.89,1,0,7,0.13
2013-6-20,80.5,66.2,52.2,57.9,53.0,49.1,90,66,35,30.25,30.13,1,0,7,0.00
2013-6-21,84.8,71.6,58.8,66.1,59.9,53.9,86,69,44,30.23,30.17,2,0,8,0.00
2013-6-22,85.0,72.8,62.7,67.1,61.0,56.8,83,68,45,30.20,30.09,1,0,13,0.00
2013-6-23,89.5,76.2,64.3,75.3,66.3,57.1,83,72,58,30.14,29.97,1,0,10,0.00
2013-6-24,92.3,79.1,69.5,75.0,70.6,65.9,95,77,53,30.00,29.85,3,0,12,0.04
2013-6-25,91.2,78.7,68.4,73.3,68.9,64.7,95,74,49,29.91,29.70,2,0,16,0.00
2013-6-26,83.7,76.2,69.9,71.7,69.1,66.8,93,79,64,29.83,29.70,3,0,9,0.00
2013-6-27,73.7,67.2,63.8,69.4,65.2,62.4,97,93,83,29.84,29.73,0,0,1,0.15
2013-6-28,81.4,69.9,60.3,74.3,67.1,59.5,99,92,69,29.74,29.46,1,0,8,0.40
2013-6-29,83.8,74.7,70.0,72.0,69.3,67.5,96,84,63,29.70,29.49,1,0,7,0.00
2013-6-30,85.0,75.4,68.6,74.8,70.4,67.1,96,85,66,29.91,29.70,0,0,4,0.01
2013-7-1,81.8,74.5,70.8,76.2,72.2,69.7,98,93,81,30.05,29.91,0,0,6,0.07
2013-7-2,84.8,74.9,64.5,76.2,70.9,61.8,94,88,72,30.18,30.05,1,0,9,0.00
2013-7-3,88.1,74.7,62.6,76.6,69.2,60.8,96,84,62,30.19,30.11,2,0,12,0.00
2013-7-4,92.2,81.6,72.5,76.6,73.7,70.7,95,78,56,30.18,30.07,2,0,9,0.00
2013-7-5,93.3,83.2,74.8,77.2,74.1,71.7,91,75,53,30.14,30.01,2,0,8,0.00
2013-7-6,90.8,82.0,74.2,75.9,72.5,66.6,92,74,54,30.05,29.96,2,0,12,0.00
2013-7-7,91.2,79.3,71.4,78.2,71.0,65.8,89,76,58,30.00,29.88,1,0,6,0.00
2013-7-8,90.0,77.6,69.3,77.4,71.8,66.4,96,83,56,30.04,29.89,1,0,8,0.00
2013-7-9,73.5,69.1,65.6,69.7,66.5,63.6,96,91,86,30.08,30.02,0,0,1,0.00
2013-7-10,85.6,73.7,66.8,76.8,70.7,64.5,97,91,73,30.05,29.77,0,0,3,0.13
2013-7-11,82.3,75.3,70.9,76.1,72.3,66.8,98,91,74,29.91,29.75,1,0,7,0.05
2013-7-12,77.2,70.2,65.7,66.8,62.7,58.9,90,77,61,30.18,29.91,0,0,5,0.00
2013-7-13,76.3,69.9,65.0,71.5,66.4,59.7,97,89,80,30.29,30.18,0,0,1,0.02
2013-7-14,91.2,77.5,69.4,76.3,72.4,68.3,98,86,54,30.28,30.18,1,0,7,0.07
2013-7-15,92.5,80.5,72.0,77.7,73.3,69.0,97,80,52,30.18,30.07,1,0,6,0.00
2013-7-16,94.5,81.7,72.2,74.0,69.8,66.3,84,69,44,30.14,30.08,1,0,6,0.00
2013-7-17,95.5,82.2,71.3,75.9,71.8,66.7,94,73,43,30.16,29.97,1,0,6,0.00
2013-7-18,95.3,83.7,75.5,77.8,74.1,71.0,86,74,49,29.99,29.90,1,0,7,0.00
2013-7-19,96.5,84.7,73.7,78.7,74.6,70.3,93,74,49,29.92,29.69,3,0,15,0.00
2013-7-20,91.3,83.2,75.5,77.6,73.8,63.8,91,74,56,29.79,29.63,2,0,10,0.00
2013-7-21,86.5,76.1,69.0,69.4,65.9,61.6,91,72,55,29.96,29.78,1,0,6,0.00
2013-7-22,85.0,72.9,65.1,72.3,67.4,63.6,97,84,63,30.00,29.86,0,0,3,0.00
2013-7-23,78.9,72.2,68.9,77.7,70.9,66.8,98,96,90,29.87,29.51,2,0,7,1.43
2013-7-24,83.5,75.0,65.5,71.8,67.5,55.4,99,79,55,29.94,29.56,2,0,12,0.00
2013-7-25,65.4,59.5,58.0,58.4,54.8,49.4,98,85,69,30.09,29.94,0,0,5,0.20
2013-7-26,71.0,64.1,58.6,67.3,61.9,57.8,98,93,84,30.05,29.94,1,0,6,0.23
2013-7-27,84.5,71.0,60.5,69.5,63.7,58.3,96,79,52,30.04,29.97,1,0,6,0.00
2013-7-28,86.5,72.2,63.9,72.9,67.3,61.9,95,85,56,30.00,29.93,0,0,2,0.00
2013-7-29,85.8,73.9,66.7,74.0,68.3,62.6,97,84,64,30.02,29.94,1,0,6,0.00
2013-7-30,82.0,72.1,63.9,62.8,59.2,55.8,84,65,44,30.08,30.01,2,0,13,0.00
2013-7-31,82.9,71.6,62.8,66.2,60.9,56.3,90,71,45,30.12,30.02,0,0,4,0.00
2013-8-1,80.2,68.8,61.2,67.6,63.8,59.8,97,85,63,30.03,29.85,1,0,8,0.02
2013-8-2,82.4,71.1,63.8,67.7,63.7,59.3,98,80,48,29.87,29.78,2,0,15,0.80
2013-8-3,79.5,69.7,62.9,65.1,62.9,60.5,97,81,57,29.85,29.77,2,0,11,0.00
2013-8-4,79.7,67.9,60.2,62.2,58.0,54.7,89,72,46,29.89,29.75,2,0,10,0.01
2013-8-5,76.8,64.6,56.5,55.7,49.7,43.2,86,62,33,30.03,29.88,2,0,15,0.01
2013-8-6,81.9,65.4,51.5,58.0,53.4,48.2,91,68,40,30.13,30.03,0,0,4,0.00
2013-8-7,81.5,68.0,56.4,61.6,57.1,52.6,96,71,38,30.17,30.09,0,0,4,0.00
2013-8-8,80.8,71.1,64.6,72.7,66.9,58.6,96,87,75,30.10,29.99,0,0,8,0.07
2013-8-9,74.4,72.1,70.2,73.8,70.8,68.7,98,96,91,30.00,29.73,1,0,6,1.22
2013-8-10,83.5,73.0,64.7,70.9,62.1,53.6,98,71,43,29.99,29.78,4,1,13,0.00
2013-8-11,80.3,67.5,54.5,59.6,55.7,51.1,92,68,44,30.07,29.99,1,0,8,0.00
2013-8-12,83.0,70.7,60.2,63.7,59.9,57.1,93,71,44,30.01,29.90,2,0,8,0.00
2013-8-13,75.7,68.4,64.9,69.1,64.9,61.8,94,89,73,29.91,29.67,0,0,2,0.02
2013-8-14,74.2,65.6,59.5,63.8,55.5,50.5,95,71,51,29.95,29.65,4,1,14,0.00
2013-8-15,77.2,65.3,55.8,56.5,53.3,50.4,86,67,44,30.10,29.95,2,0,10,0.00
2013-8-16,80.0,67.4,55.4,58.8,55.3,51.6,87,67,40,30.18,30.09,2,0,9,0.00
2013-8-17,81.5,68.9,59.0,65.0,59.7,55.1,88,74,52,30.26,30.18,1,0,6,0.00
2013-8-18,78.8,68.1,58.6,66.1,61.3,56.6,95,80,53,30.25,30.07,0,0,3,0.00
2013-8-19,80.3,70.6,61.8,64.6,61.4,58.8,91,74,54,30.07,29.94,1,0,10,0.00
2013-8-20,86.6,75.0,65.4,65.8,62.6,57.5,85,67,41,30.07,29.96,1,0,8,0.00
2013-8-21,88.8,75.6,62.8,67.6,63.9,59.6,91,69,45,30.12,30.00,1,0,7,0.00
2013-8-22,84.8,74.7,64.8,72.9,67.9,62.4,93,80,58,30.02,29.81,1,0,7,0.00
2013-8-23,80.7,72.0,62.9,69.1,60.2,52.4,92,68,42,30.11,29.80,1,0,8,0.00
2013-8-24,79.5,65.7,54.7,53.6,51.0,46.6,84,62,34,30.32,30.11,1,0,4,0.00
2013-8-25,83.9,68.8,54.6,58.3,54.1,49.8,89,63,31,30.35,30.17,2,0,10,0.00
2013-8-26,78.2,71.2,64.1,67.7,62.6,57.1,88,74,62,30.17,29.85,2,0,12,0.01
2013-8-27,86.7,73.5,67.0,72.8,68.5,64.9,98,86,56,29.88,29.81,0,0,3,0.15
2013-8-28,87.0,72.0,62.9,70.3,65.4,61.6,98,81,53,29.96,29.83,0,0,3,0.00
2013-8-29,66.3,64.5,61.0,64.4,61.8,57.8,95,91,87,30.05,29.92,0,0,4,0.00
2013-8-30,85.3,70.2,58.9,68.8,63.9,56.9,95,82,56,30.02,29.81,1,0,8,0.00
2013-8-31,79.9,74.0,68.8,73.7,70.5,66.7,96,89,80,29.82,29.77,1,0,7,0.00
2013-9-1,77.8,71.9,68.0,75.3,70.6,67.0,98,96,88,29.86,29.77,2,0,10,0.27
2013-9-2,77.5,73.1,71.0,75.6,71.8,70.4,98,96,89,29.84,29.69,0,0,4,0.17
2013-9-3,78.5,71.3,63.7,71.8,67.7,57.9,98,89,74,29.80,29.67,2,0,9,0.02
2013-9-4,80.4,68.4,59.6,60.4,57.7,54.5,91,71,43,29.91,29.79,2,0,11,0.01
2013-9-5,72.5,63.5,52.7,61.4,54.0,44.6,93,73,39,30.13,29.84,1,0,5,0.02
2013-9-6,70.9,57.0,45.5,47.0,43.6,39.4,85,63,37,30.23,30.08,1,0,9,0.00
2013-9-7,79.4,63.8,50.8,58.6,50.8,45.0,83,65,35,30.08,29.84,1,0,7,0.00
2013-9-8,73.4,64.1,50.8,62.1,53.0,41.4,89,69,39,30.08,29.74,3,0,12,0.00
2013-9-9,69.3,57.4,46.1,51.0,45.1,39.9,83,65,41,30.22,30.08,1,0,7,0.00
2013-9-10,74.8,65.9,56.0,70.2,62.5,50.7,96,89,81,30.14,30.01,1,0,8,0.06
2013-9-11,94.5,80.0,68.8,77.2,72.4,67.2,98,80,50,30.05,29.92,3,0,9,0.00
2013-9-12,87.0,76.2,67.0,74.8,70.1,65.8,97,82,62,29.94,29.66,1,0,15,0.94
2013-9-13,78.8,67.7,59.4,68.3,63.9,54.0,98,88,67,29.74,29.55,2,0,8,0.10
2013-9-14,67.6,59.3,53.9,55.7,52.8,50.4,92,80,62,30.04,29.75,2,0,11,0.01
2013-9-15,71.2,59.0,49.6,53.3,50.1,46.5,94,75,43,30.15,30.03,1,0,8,0.00
2013-9-16,66.8,58.2,47.3,56.2,50.6,38.6,89,76,62,30.24,30.00,2,0,10,0.01
2013-9-17,64.3,50.2,39.6,46.3,40.5,35.8,87,71,45,30.41,30.24,1,0,4,0.00
2013-9-18,75.1,57.8,43.8,50.0,45.8,41.1,92,68,34,30.32,30.13,2,0,7,0.00
2013-9-19,81.0,62.5,48.1,57.3,51.6,45.9,93,70,39,30.13,30.02,1,0,8,0.00
2013-9-20,81.5,63.3,49.6,59.0,54.2,48.1,97,76,39,30.07,29.98,0,0,2,0.00
2013-9-21,75.0,63.9,52.4,65.2,59.4,51.0,100,86,62,30.01,29.70,1,0,5,0.00
2013-9-22,69.0,63.0,51.5,67.0,56.6,45.7,97,81,54,29.82,29.58,3,0,14,0.48
2013-9-23,63.3,52.3,45.1,47.6,42.9,39.3,85,71,51,30.00,29.82,2,0,12,0.00
2013-9-24,67.0,53.4,42.9,47.9,43.0,39.1,87,69,44,29.99,29.81,2,0,12,0.00
2013-9-25,68.0,55.9,47.4,54.2,48.3,43.6,87,76,57,29.97,29.86,1,0,8,0.00
2013-9-26,66.7,57.0,52.4,51.8,49.7,47.1,90,78,55,30.11,29.97,1,0,7,0.00
2013-9-27,64.5,57.4,52.1,55.7,52.5,50.5,96,84,71,30.25,30.11,0,0,3,0.00
2013-9-28,74.5,58.6,50.4,57.3,52.3,48.5,95,81,53,30.32,30.24,0,0,3,0.00
2013-9-29,69.1,53.7,44.9,53.3,47.5,43.8,98,82,47,30.25,30.11,0,0,4,0.00
2013-9-30,69.3,54.5,46.1,53.2,49.5,45.3,98,85,55,30.12,29.95,0,0,5,0.00
2013-10-1,77.3,61.8,47.1,58.2,52.8,45.5,100,75,43,29.95,29.83,1,0,7,0.00
2013-10-2,79.2,67.2,58.0,62.4,58.1,53.8,87,73,55,29.94,29.82,3,0,13,0.00
2013-10-3,76.6,64.9,56.9,56.6,51.6,46.3,83,64,39,30.07,29.94,1,0,9,0.00
2013-10-4,62.5,58.3,51.4,58.8,53.8,48.3,97,85,67,30.07,30.02,0,0,3,0.14
2013-10-5,68.1,61.4,56.9,60.9,57.9,55.9,97,89,76,30.11,30.04,0,0,3,0.00
2013-10-6,60.5,56.1,53.5,58.3,55.2,52.6,98,97,91,30.21,30.09,0,0,3,0.33
2013-10-7,75.0,63.2,55.4,70.0,61.1,53.3,99,93,80,30.12,29.79,3,0,12,0.05
2013-10-8,65.0,55.7,44.3,53.7,46.6,40.6,87,73,47,30.36,29.89,1,0,10,0.01
2013-10-9,62.4,49.5,41.1,49.0,43.5,39.0,95,81,58,30.47,30.36,0,0,4,0.00
2013-10-10,60.7,50.8,41.3,53.9,47.8,40.2,97,90,76,30.36,30.17,0,0,3,0.00
2013-10-11,65.5,51.8,45.9,56.6,49.2,44.8,97,91,72,30.17,30.11,0,0,5,0.00
2013-10-12,58.2,53.0,47.4,55.4,50.7,45.8,97,92,84,30.38,30.14,0,0,4,0.00
2013-10-13,57.9,50.6,41.7,50.8,47.0,40.4,100,88,73,30.43,30.36,0,0,3,0.00
2013-10-14,62.5,49.1,36.8,48.0,42.6,35.8,98,81,43,30.39,30.24,0,0,4,0.00
2013-10-15,66.2,55.6,47.0,56.3,50.3,45.4,96,83,66,30.25,30.16,0,0,3,0.00
2013-10-16,60.0,53.8,48.3,53.5,51.0,46.8,100,91,76,30.17,29.90,0,0,3,0.00
2013-10-17,72.0,60.1,49.6,60.5,55.5,48.5,100,86,60,29.90,29.71,1,0,8,0.01
2013-10-18,65.3,58.8,46.6,60.2,50.8,41.4,97,77,51,29.89,29.59,4,1,17,0.00
2013-10-19,65.0,53.6,42.5,48.1,43.2,39.2,90,70,44,29.95,29.73,1,0,6,0.00
2013-10-20,59.9,52.3,44.5,50.1,40.7,32.8,96,67,38,30.00,29.67,4,1,18,0.03
2013-10-21,65.1,52.0,39.4,44.3,40.0,35.1,87,66,41,30.10,29.98,2,0,8,0.00
2013-10-22,64.1,52.9,43.8,53.0,45.8,37.2,97,78,55,29.98,29.70,1,0,11,0.00
2013-10-23,50.1,45.2,37.7,37.2,34.9,32.0,89,68,50,29.78,29.58,2,0,10,0.00
2013-10-24,51.0,44.8,37.4,36.0,30.5,24.6,83,59,38,29.88,29.64,4,1,17,0.00
2013-10-25,48.0,40.0,32.1,35.0,29.4,27.2,91,67,48,30.15,29.88,3,0,11,0.00
2013-10-26,53.6,42.7,31.3,35.7,30.8,26.4,95,66,36,30.14,29.86,2,0,13,0.00
2013-10-27,52.4,46.6,37.6,40.3,34.6,29.4,89,64,44,30.05,29.79,4,1,14,0.01
2013-10-28,56.2,43.9,34.2,36.6,32.3,25.7,85,65,44,30.34,30.05,4,0,15,0.00
2013-10-29,47.0,36.6,29.9,29.1,23.7,18.6,86,61,33,30.44,30.34,2,0,6,0.00
2013-10-30,52.3,41.4,33.0,40.9,35.4,28.9,93,80,64,30.36,30.19,2,0,10,0.01
2013-10-31,60.5,48.2,34.9,58.2,46.5,33.6,97,94,87,30.23,29.78,1,0,7,0.18
2013-11-1,68.3,62.9,56.1,62.5,58.0,52.8,97,84,69,29.78,29.44,4,1,13,0.10
2013-11-2,64.8,54.5,45.7,52.8,45.3,41.8,94,74,44,29.71,29.57,2,0,11,0.00
2013-11-3,50.0,40.8,30.9,46.0,29.3,17.8,87,65,36,30.41,29.71,2,0,10,0.00
2013-11-4,40.6,32.0,26.7,21.9,18.6,15.4,79,59,36,30.69,30.41,1,0,6,0.00
2013-11-5,48.7,36.9,24.9,34.5,27.9,21.5,92,71,50,30.71,30.50,1,0,4,0.00
2013-11-6,59.1,49.4,38.3,48.9,41.9,34.2,88,76,57,30.50,30.03,2,0,9,0.00
2013-11-7,64.0,53.0,40.1,57.3,48.8,31.3,93,86,69,30.03,29.66,3,1,12,0.02
2013-11-8,46.8,38.6,31.4,34.4,27.5,22.3,79,65,49,30.09,29.80,5,1,20,0.00
2013-11-9,43.0,37.2,28.8,29.7,25.4,22.5,77,63,45,30.21,30.02,3,0,17,0.00
2013-11-10,54.7,44.3,39.4,42.1,36.3,29.7,96,74,54,30.01,29.73,6,1,22,0.05
2013-11-11,49.7,44.0,37.9,32.5,29.2,26.5,69,56,41,30.09,29.85,4,1,20,0.00
2013-11-12,48.5,34.8,25.6,38.3,25.1,15.9,91,68,54,30.18,29.87,4,1,17,0.08
2013-11-13,34.7,28.0,22.6,17.6,15.3,11.7,74,59,41,30.28,30.15,4,1,11,0.00
2013-11-14,49.8,38.9,28.3,26.0,21.7,17.5,65,51,37,30.15,30.04,3,1,14,0.00
2013-11-15,59.8,46.2,33.4,32.6,23.1,15.7,66,42,19,30.18,30.09,1,0,9,0.00
2013-11-16,58.4,46.7,38.9,35.8,28.4,23.7,79,51,27,30.30,30.17,1,0,6,0.00
2013-11-17,51.5,42.4,34.1,44.6,38.5,31.4,97,86,71,30.29,29.83,0,0,4,0.03
2013-11-18,63.6,56.3,45.0,60.9,45.9,33.1,100,71,46,29.83,29.52,4,1,15,0.41
2013-11-19,47.7,38.6,30.1,33.1,22.8,16.7,61,53,44,30.27,29.64,6,3,21,0.00
2013-11-20,40.1,31.1,24.9,17.1,15.7,13.0,69,54,34,30.62,30.27,3,1,12,0.00
2013-11-21,46.5,34.5,22.3,34.2,21.3,15.1,77,60,39,30.63,30.37,2,0,9,0.00
2013-11-22,45.9,43.1,41.1,45.4,40.9,34.1,98,92,74,30.36,29.80,0,0,5,0.13
2013-11-23,46.7,39.0,28.2,45.9,27.3,16.7,97,64,40,29.90,29.78,6,2,24,0.00
2013-11-24,28.2,22.6,18.9,20.2,5.6,-3.7,85,49,28,30.19,29.79,7,4,22,0.00
2013-11-25,31.7,23.9,15.3,18.7,5.5,-4.9,60,46,24,30.37,30.19,4,1,16,0.00
2013-11-26,39.1,34.1,30.9,32.7,22.4,14.8,95,63,49,30.32,30.03,3,0,10,0.11
2013-11-27,61.1,47.8,33.6,60.2,46.5,31.8,100,95,85,30.02,29.20,6,2,16,1.55
2013-11-28,36.2,29.3,23.0,32.0,16.7,8.4,87,60,41,30.43,29.46,8,3,25,0.00
2013-11-29,32.2,25.5,18.6,16.8,12.3,4.0,79,58,42,30.74,30.42,4,0,11,0.00
2013-11-30,31.2,23.3,13.9,21.7,13.8,7.5,76,67,55,30.79,30.41,1,0,4,0.00
2013-12-1,34.6,31.9,28.9,33.7,29.5,21.7,97,91,74,30.42,30.01,1,0,5,0.08
2013-12-2,37.8,35.8,34.6,37.3,35.2,33.7,98,98,97,30.01,29.91,0,0,4,0.00
2013-12-3,47.9,38.1,33.4,38.9,34.7,30.9,98,88,63,29.94,29.84,1,0,6,0.00
2013-12-4,43.2,35.1,29.9,31.1,28.6,26.5,95,78,57,30.19,29.94,3,0,11,0.00
2013-12-5,47.2,37.4,31.6,46.6,35.4,28.0,98,93,86,30.20,29.91,1,0,3,0.02
2013-12-6,54.8,47.2,32.7,54.5,44.8,31.4,100,92,74,30.13,29.84,2,0,8,0.25
2013-12-7,37.7,32.0,25.5,31.9,27.6,19.5,97,84,64,30.44,30.07,4,0,15,0.12
2013-12-8,29.7,27.1,21.5,20.9,17.9,14.5,79,68,57,30.59,30.44,1,0,8,0.00
2013-12-9,33.6,29.7,24.7,32.8,27.8,18.3,97,93,70,30.49,29.89,1,0,4,0.00
2013-12-10,33.4,30.1,22.7,31.9,27.5,17.0,97,90,70,29.99,29.77,3,0,17,0.00
2013-12-11,30.2,24.4,20.6,19.8,17.9,15.9,89,76,62,30.20,29.99,4,1,12,0.00
2013-12-12,23.9,19.5,12.3,18.6,8.8,2.6,85,64,42,30.27,30.06,4,1,14,0.00
2013-12-13,27.5,20.8,13.1,17.7,12.0,4.2,80,69,58,30.39,29.99,4,1,20,0.00
2013-12-14,18.5,13.0,9.4,16.5,5.1,-2.2,92,71,49,30.60,30.15,1,0,5,0.01
2013-12-15,29.2,23.6,18.5,28.0,20.9,16.6,96,89,76,30.14,29.44,3,1,11,0.00
2013-12-16,26.5,22.6,14.2,22.4,12.3,6.7,92,65,46,30.20,29.74,6,1,20,0.00
2013-12-17,16.6,10.8,1.3,14.7,6.5,-2.2,92,83,68,30.27,29.95,2,0,6,0.00
2013-12-18,32.0,24.5,14.5,22.5,19.2,11.9,91,80,63,30.07,29.88,4,1,12,0.00
2013-12-19,41.3,32.5,24.2,27.3,23.7,19.5,83,70,52,30.10,29.95,4,1,15,0.11
2013-12-20,51.9,41.0,31.9,35.7,31.7,26.4,83,70,52,30.10,29.89,3,0,7,0.69
2013-12-21,55.8,47.5,40.1,47.6,41.9,33.4,91,81,70,29.95,29.84,3,0,7,0.07
2013-12-22,58.8,43.4,33.3,58.0,42.2,32.5,100,96,85,30.01,29.76,3,0,10,0.01
2013-12-23,37.5,33.2,31.5,37.0,32.6,30.8,98,98,97,30.08,29.94,1,0,6,0.59
2013-12-24,36.1,30.9,25.1,35.5,23.3,13.5,98,74,53,30.19,30.04,3,0,13,0.00
2013-12-25,25.1,18.0,13.6,14.3,6.4,2.3,72,60,46,30.53,30.19,4,1,15,0.00
2013-12-26,28.4,23.0,15.0,26.4,18.6,7.3,93,83,68,30.50,30.09,2,0,9,0.00
2013-12-27,32.8,26.7,20.8,22.0,20.2,17.1,92,77,60,30.27,30.19,3,0,11,0.01
2013-12-28,45.4,33.0,22.0,29.3,25.1,18.8,90,74,51,30.21,29.99,3,0,11,0.01
2013-12-29,41.7,35.4,29.5,36.7,31.4,25.1,100,86,69,30.02,29.41,4,0,11,1.09
2013-12-30,40.1,31.4,18.0,34.6,23.3,9.4,96,74,43,30.15,29.52,6,1,21,0.01
2013-12-31,24.8,17.9,11.9,15.4,7.7,-1.5,82,64,51,30.18,30.01,2,0,12,0.00
2014-1-1,26.5,20.2,13.4,14.5,9.0,6.2,81,62,48,30.37,30.18,4,1,14,0.00
2014-1-2,19.2,11.0,0.3,15.4,7.6,-3.1,95,86,73,30.35,29.85,3,1,10,0.00